Portsmouth, New Hampshire
Current Conditions -  °F | °C
As of 4:58 PM on Sunday 25 Jan 2015 (Local Time) from KPSM Reporting Station
Few Clouds Few Clouds  
Wind Chill: 13°   Ceiling: Unl
Heat Index: 25°   Visibility: 10mi
Dew Point:   Wind: 14mph
Humidity: 36%   Direction: 290°WNW
Pressure: 29.77"   Gusts: NA
Location:  43.07°N, 70.77°W
Report Text: KPSM 252158Z 29012KT 10SM FEW060 FEW250 M04/M17 A2977 RMK AO2A PRESRR SLP086 T10411173
Loading
Personal Weather Stations






























Interactive Weather Map New forecast layout! Learn more

10-Day Weather Forecast

Advertisements
Track Severe Weather on mobile